TimeMDT,TemperatureF,Dew PointF,Humidity,Sea Level PressureIn,VisibilityMPH,Wind Direction,Wind SpeedMPH,Gust SpeedMPH,PrecipitationIn,Events,Conditions,WindDirDegrees,DateUTC
12:48 AM,26.1,21.9,84,30.06,-9999.0,Calm,Calm,-,N/A,,Unknown,0,2012-10-19 06:48:00
1:48 AM,26.6,23.0,86,29.96,-9999.0,Calm,Calm,-,N/A,,Unknown,0,2012-10-19 07:48:00
2:48 AM,26.1,21.9,84,29.99,-9999.0,Calm,Calm,-,N/A,,Unknown,0,2012-10-19 08:48:00
3:48 AM,26.1,23.0,88,29.96,-9999.0,ESE,3.5,-,N/A,,Unknown,110,2012-10-19 09:48:00
4:48 AM,28.0,23.0,81,29.92,-9999.0,Calm,Calm,-,N/A,,Unknown,0,2012-10-19 10:48:00
5:48 AM,27.0,23.0,85,29.91,-9999.0,Calm,Calm,-,N/A,,Unknown,0,2012-10-19 11:48:00
6:48 AM,28.9,24.1,82,29.89,-9999.0,Calm,Calm,-,N/A,,Unknown,0,2012-10-19 12:48:00
7:48 AM,33.1,27.0,78,29.86,-9999.0,Calm,Calm,-,N/A,,Unknown,0,2012-10-19 13:48:00
8:48 AM,36.0,28.9,76,29.83,-9999.0,Calm,Calm,-,N/A,,Unknown,0,2012-10-19 14:48:00
9:48 AM,46.9,30.0,52,29.79,-9999.0,South,8.1,-,N/A,,Unknown,190,2012-10-19 15:48:00
10:48 AM,57.0,28.0,33,29.74,-9999.0,SW,8.1,-,N/A,,Unknown,230,2012-10-19 16:48:00
11:48 AM,60.1,28.9,31,29.71,-9999.0,WSW,11.5,20.7,N/A,,Unknown,240,2012-10-19 17:48:00
12:48 PM,64.0,30.0,28,29.69,-9999.0,WSW,18.4,-,N/A,,Unknown,240,2012-10-19 18:48:00
1:48 PM,64.0,30.9,29,29.66,-9999.0,SW,13.8,20.7,N/A,,Unknown,230,2012-10-19 19:48:00
2:48 PM,66.9,32.0,27,29.64,-9999.0,WSW,13.8,-,N/A,,Unknown,250,2012-10-19 20:48:00
3:48 PM,69.1,34.0,27,29.63,-9999.0,West,5.8,-,N/A,,Unknown,280,2012-10-19 21:48:00
4:48 PM,68.0,35.1,30,29.61,-9999.0,West,3.5,-,N/A,,Unknown,280,2012-10-19 22:48:00
5:48 PM,57.9,37.0,46,29.64,-9999.0,WNW,6.9,-,N/A,,Unknown,300,2012-10-19 23:48:00
6:48 PM,53.1,37.9,57,29.65,-9999.0,Calm,Calm,-,N/A,,Unknown,0,2012-10-20 00:48:00
7:48 PM,52.0,39.0,61,29.64,-9999.0,Calm,Calm,-,N/A,,Unknown,0,2012-10-20 01:48:00
8:48 PM,52.0,39.0,61,29.62,-9999.0,West,5.8,-,N/A,,Unknown,280,2012-10-20 02:48:00
9:48 PM,50.0,39.0,66,29.60,-9999.0,Calm,Calm,-,N/A,,Unknown,0,2012-10-20 03:48:00
10:48 PM,48.0,39.0,71,29.57,-9999.0,South,3.5,-,N/A,,Unknown,170,2012-10-20 04:48:00
11:48 PM,53.1,37.9,57,29.56,-9999.0,WSW,6.9,-,N/A,,Unknown,250,2012-10-20 05:48:00